createdAt,value
2019-02-07T00:01:42.426Z,71.45
2019-02-07T00:04:09.950Z,71.58
2019-02-07T00:06:37.471Z,71.65
2019-02-07T00:09:08.361Z,71.89
2019-02-07T00:11:35.850Z,71.96
2019-02-07T00:14:03.790Z,71.85
2019-02-07T00:16:31.372Z,72.00
2019-02-07T00:18:58.806Z,72.25
2019-02-07T00:21:26.290Z,72.03
2019-02-07T00:23:53.705Z,72.20
2019-02-07T00:26:21.131Z,72.16
2019-02-07T00:28:48.525Z,72.44
2019-02-07T00:31:16.336Z,72.71
2019-02-07T00:33:43.826Z,72.66
2019-02-07T00:36:11.660Z,73.32
2019-02-07T00:38:39.151Z,72.99
2019-02-07T00:41:06.685Z,73.01
2019-02-07T00:43:34.104Z,73.09
2019-02-07T00:46:01.535Z,73.01
2019-02-07T00:48:29.285Z,73.51
2019-02-07T00:50:56.731Z,73.20
2019-02-07T00:53:24.265Z,73.31
2019-02-07T00:55:51.696Z,73.40
2019-02-07T00:58:19.132Z,73.85
2019-02-07T01:00:47.140Z,73.30
2019-02-07T01:03:14.748Z,73.19
2019-02-07T01:05:42.431Z,73.12
2019-02-07T01:08:10.015Z,73.21
2019-02-07T01:10:37.430Z,73.13
2019-02-07T01:13:05.010Z,73.24
2019-02-07T01:15:32.483Z,73.33
2019-02-07T01:18:00.010Z,73.43
2019-02-07T01:20:27.410Z,73.23
2019-02-07T01:22:55.586Z,73.09
2019-02-07T01:25:23.233Z,73.19
2019-02-07T01:27:51.225Z,73.26
2019-02-07T01:30:20.221Z,73.33
2019-02-07T01:32:47.664Z,73.02
2019-02-07T01:35:15.057Z,72.96
2019-02-07T01:37:42.710Z,73.36
2019-02-07T01:40:13.010Z,73.14
2019-02-07T01:42:40.485Z,72.91
2019-02-07T01:45:13.146Z,72.78
2019-02-07T01:47:39.236Z,72.67
2019-02-07T01:50:08.750Z,72.52
2019-02-07T01:52:36.348Z,72.46
2019-02-07T01:55:04.480Z,72.41
2019-02-07T01:57:31.972Z,72.41
2019-02-07T01:59:59.374Z,72.15
2019-02-07T02:02:26.791Z,71.91
2019-02-07T02:04:54.269Z,71.82
2019-02-07T02:07:21.765Z,71.57
2019-02-07T02:09:49.165Z,71.45
2019-02-07T02:12:16.716Z,71.26
2019-02-07T02:14:44.091Z,70.99
2019-02-07T02:17:11.524Z,70.83
2019-02-07T02:19:40.718Z,70.78
2019-02-07T02:22:08.287Z,70.58
2019-02-07T02:24:35.808Z,70.28
2019-02-07T02:27:03.321Z,70.19
2019-02-07T02:29:31.200Z,70.13
2019-02-07T02:31:58.636Z,70.01
2019-02-07T02:34:26.082Z,69.36
2019-02-07T02:36:53.665Z,68.98
2019-02-07T02:39:21.065Z,68.99
2019-02-07T02:41:48.439Z,67.68
2019-02-07T02:44:15.907Z,67.96
2019-02-07T02:46:43.309Z,67.25
2019-02-07T02:49:10.976Z,67.17
2019-02-07T02:51:38.381Z,66.87
2019-02-07T02:54:05.854Z,66.66
2019-02-07T02:56:33.316Z,66.70
2019-02-07T02:59:00.720Z,66.04
2019-02-07T03:02:02.581Z,65.82
2019-02-07T03:04:58.356Z,65.56
2019-02-07T03:07:47.190Z,65.12
2019-02-07T03:10:42.950Z,64.74
2019-02-07T03:13:30.245Z,64.35
2019-02-07T03:16:06.435Z,64.43
2019-02-07T03:19:05.193Z,64.11
2019-02-07T03:21:54.885Z,63.85
2019-02-07T03:24:44.751Z,63.56
2019-02-07T03:27:37.661Z,63.07
2019-02-07T03:30:24.852Z,62.21
2019-02-07T03:33:02.608Z,62.21
2019-02-07T03:36:01.780Z,62.00
2019-02-07T03:38:41.545Z,63.39
2019-02-07T03:41:21.340Z,63.10
2019-02-07T03:44:14.340Z,64.56
2019-02-07T03:46:53.754Z,64.51
2019-02-07T03:49:39.453Z,65.17
2019-02-07T03:52:24.750Z,65.05
2019-02-07T03:55:10.349Z,65.86
2019-02-07T03:58:09.566Z,66.06
2019-02-07T04:00:52.996Z,66.22
2019-02-07T04:03:33.728Z,66.22
2019-02-07T04:06:21.066Z,66.91
2019-02-07T04:09:26.010Z,66.69
2019-02-07T04:12:22.790Z,67.11
2019-02-07T04:15:14.066Z,67.12
2019-02-07T04:18:01.085Z,67.07
2019-02-07T04:20:40.953Z,67.29
2019-02-07T04:23:27.890Z,67.41
2019-02-07T04:26:25.927Z,67.19
2019-02-07T04:29:11.451Z,67.24
2019-02-07T04:31:58.409Z,65.52
2019-02-07T04:35:00.340Z,65.47
2019-02-07T04:37:45.868Z,64.70
2019-02-07T04:40:41.632Z,63.27
2019-02-07T04:43:31.109Z,62.55
2019-02-07T04:46:26.607Z,62.29
2019-02-07T04:49:06.306Z,61.74
2019-02-07T04:52:02.505Z,61.71
2019-02-07T04:54:40.330Z,61.39
2019-02-07T04:57:27.226Z,60.55
2019-02-07T05:00:14.624Z,60.70
2019-02-07T05:02:51.585Z,60.86
2019-02-07T05:05:32.926Z,60.54
2019-02-07T05:08:20.129Z,60.35
2019-02-07T05:11:16.185Z,60.50
2019-02-07T05:14:12.259Z,60.59
2019-02-07T05:16:59.233Z,60.03
2019-02-07T05:19:52.222Z,60.33
2019-02-07T05:22:37.936Z,59.90
2019-02-07T05:25:28.661Z,60.48
2019-02-07T05:28:21.531Z,60.54
2019-02-07T05:31:23.389Z,60.12
2019-02-07T05:33:57.751Z,60.71
2019-02-07T05:36:47.205Z,60.45
2019-02-07T05:39:32.795Z,60.97
2019-02-07T05:42:12.213Z,60.73
2019-02-07T05:44:59.168Z,61.12
2019-02-07T05:47:46.170Z,61.17
2019-02-07T05:50:31.939Z,60.98
2019-02-07T05:53:18.892Z,61.35
2019-02-07T05:56:18.031Z,61.57
2019-02-07T05:59:03.345Z,61.00
2019-02-07T06:01:54.971Z,61.69
2019-02-07T06:04:57.021Z,61.84
2019-02-07T06:07:56.082Z,62.11
2019-02-07T06:10:43.001Z,61.98
2019-02-07T06:13:35.752Z,62.22
2019-02-07T06:16:40.886Z,62.37
2019-02-07T06:19:27.810Z,62.90
2019-02-07T06:22:13.710Z,63.25
2019-02-07T06:24:59.192Z,63.18
2019-02-07T06:28:04.290Z,63.37
2019-02-07T06:30:54.160Z,64.34
2019-02-07T06:33:39.951Z,64.75
2019-02-07T06:36:26.901Z,66.08
2019-02-07T06:39:12.721Z,67.22
2019-02-07T06:42:02.606Z,68.26
2019-02-07T06:45:06.228Z,69.20
2019-02-07T06:48:05.458Z,70.37
2019-02-07T06:50:52.400Z,70.26
2019-02-07T06:53:57.535Z,70.83
2019-02-07T06:56:58.279Z,71.69
2019-02-07T06:59:45.553Z,72.51
2019-02-07T07:02:35.563Z,73.65
2019-02-07T07:05:22.565Z,75.85
2019-02-07T07:08:08.180Z,77.30
2019-02-07T07:11:01.540Z,77.35
2019-02-07T07:13:51.555Z,76.44
2019-02-07T07:16:44.526Z,75.43
2019-02-07T07:19:40.685Z,74.79
2019-02-07T07:22:28.190Z,74.44
2019-02-07T07:25:08.298Z,73.58
2019-02-07T07:28:07.465Z,73.77
2019-02-07T07:30:48.515Z,73.84
2019-02-07T07:33:44.773Z,74.28
2019-02-07T07:36:31.701Z,74.44
2019-02-07T07:39:17.715Z,74.71
2019-02-07T07:42:06.500Z,74.77
2019-02-07T07:44:52.013Z,74.74
2019-02-07T07:47:48.015Z,74.75
2019-02-07T07:50:41.035Z,74.80
2019-02-07T07:53:28.010Z,75.20
2019-02-07T07:56:05.305Z,75.17
2019-02-07T07:58:58.280Z,75.29
2019-02-07T08:01:43.906Z,75.25
2019-02-07T08:04:17.230Z,75.57
2019-02-07T08:27:24.725Z,80.36
2019-02-07T08:34:42.342Z,81.54
2019-02-07T08:41:04.050Z,83.42
2019-02-07T08:47:18.591Z,85.38
2019-02-07T08:50:40.775Z,85.12
2019-02-07T08:53:53.434Z,84.93
2019-02-07T09:00:31.065Z,86.31
2019-02-07T17:27:50.458Z,64.17
2019-02-07T22:25:37.722Z,75.30
2019-02-07T22:28:07.063Z,75.13
2019-02-07T22:30:34.756Z,75.10
2019-02-07T22:33:02.258Z,75.09
2019-02-07T22:35:29.836Z,75.29
2019-02-07T22:37:57.367Z,75.30
2019-02-07T22:40:25.122Z,75.22
2019-02-07T22:42:52.686Z,75.37
2019-02-07T22:45:22.688Z,75.23
2019-02-07T22:47:50.305Z,75.22
2019-02-07T22:50:22.732Z,75.24
2019-02-07T22:52:56.763Z,75.11
2019-02-07T22:55:20.124Z,75.13
2019-02-07T22:57:47.832Z,75.27
2019-02-07T23:01:09.411Z,75.17
2019-02-07T23:03:45.240Z,75.29
2019-02-07T23:06:13.031Z,75.32
2019-02-07T23:08:40.752Z,75.33
2019-02-07T23:11:09.192Z,75.48
2019-02-07T23:13:37.052Z,75.41
2019-02-07T23:16:07.604Z,75.41
2019-02-07T23:18:36.090Z,75.30
2019-02-07T23:21:04.352Z,75.17
2019-02-07T23:23:31.912Z,75.22
2019-02-07T23:25:59.634Z,75.11
2019-02-07T23:28:27.092Z,75.15
2019-02-07T23:30:55.212Z,75.21
2019-02-07T23:33:22.773Z,75.38
2019-02-07T23:35:50.552Z,75.52
2019-02-07T23:38:18.572Z,75.66
2019-02-07T23:40:46.228Z,75.89
2019-02-07T23:43:13.914Z,76.12
2019-02-07T23:45:41.554Z,76.35
2019-02-07T23:48:09.152Z,76.40
2019-02-07T23:50:36.952Z,76.57
2019-02-07T23:53:14.069Z,76.83
2019-02-07T23:55:34.532Z,77.07
2019-02-07T23:58:02.486Z,77.18
